BRHD weather

Brooms Head Heliport
Brooms Head, New South Wales, Australia

Public forecast

Using degrees Celsius for public forecast. Weather courtesy of forecast.io.

METAR (pilot weather report)

Closest report is Grafton Airport, 18.2 nm (33.8 km) WSW. Retrieved 2019/02/16 12:00 UTC (1 hour ago):

YGFN 161200Z AUTO 20004KT 9999 // SCT040 21/15 Q1018

TAF (pilot weather forecast)

Closest forecast is Gold Coast Airport, 87.1 nm (161.3 km) N. Retrieved 2019/02/16 12:00 UTC (1 hour ago):

TAF YBCG 161106Z 1612/1712 20008KT 9999 SCT030 BKN060 FM170000 13014KT 9999 SCT040 FM170800 15008KT 9999 SCT035